sensor_id;sensor_type;location;lat;lon;timestamp;P1;durP1;ratioP1;P2;durP2;ratioP2
77359;SDS011;66426;51.454;7.266;2023-05-10T00:00:03;3.50;;;2.40;;
77359;SDS011;66426;51.454;7.266;2023-05-10T00:01:05;3.35;;;2.50;;
77359;SDS011;66426;51.454;7.266;2023-05-10T00:02:06;4.40;;;2.30;;
77359;SDS011;66426;51.454;7.266;2023-05-10T00:03:07;3.45;;;2.40;;
77359;SDS011;66426;51.454;7.266;2023-05-10T00:04:09;3.53;;;2.42;;
77359;SDS011;66426;51.454;7.266;2023-05-10T00:05:09;3.58;;;2.50;;
77359;SDS011;66426;51.454;7.266;2023-05-10T00:06:10;3.80;;;2.70;;
77359;SDS011;66426;51.454;7.266;2023-05-10T00:07:10;4.43;;;2.60;;
77359;SDS011;66426;51.454;7.266;2023-05-10T00:08:11;4.38;;;2.60;;
77359;SDS011;66426;51.454;7.266;2023-05-10T00:09:12;5.18;;;2.72;;
77359;SDS011;66426;51.454;7.266;2023-05-10T00:10:14;5.97;;;2.50;;
77359;SDS011;66426;51.454;7.266;2023-05-10T00:11:15;3.45;;;2.50;;
77359;SDS011;66426;51.454;7.266;2023-05-10T00:12:15;3.33;;;2.33;;
77359;SDS011;66426;51.454;7.266;2023-05-10T00:13:17;4.00;;;2.50;;
77359;SDS011;66426;51.454;7.266;2023-05-10T00:14:17;3.63;;;2.47;;
77359;SDS011;66426;51.454;7.266;2023-05-10T00:15:19;3.88;;;2.55;;
77359;SDS011;66426;51.454;7.266;2023-05-10T00:16:20;3.70;;;2.47;;
77359;SDS011;66426;51.454;7.266;2023-05-10T00:17:21;3.85;;;2.33;;
77359;SDS011;66426;51.454;7.266;2023-05-10T00:18:22;3.53;;;2.40;;
77359;SDS011;66426;51.454;7.266;2023-05-10T00:19:24;3.72;;;2.70;;
77359;SDS011;66426;51.454;7.266;2023-05-10T00:20:25;4.55;;;2.88;;
77359;SDS011;66426;51.454;7.266;2023-05-10T00:21:26;4.38;;;2.83;;
77359;SDS011;66426;51.454;7.266;2023-05-10T00:22:28;5.10;;;2.83;;
77359;SDS011;66426;51.454;7.266;2023-05-10T00:23:29;3.95;;;2.67;;
77359;SDS011;66426;51.454;7.266;2023-05-10T00:24:32;3.67;;;2.45;;
77359;SDS011;66426;51.454;7.266;2023-05-10T00:25:40;4.80;;;2.35;;
77359;SDS011;66426;51.454;7.266;2023-05-10T00:26:41;4.18;;;3.10;;
77359;SDS011;66426;51.454;7.266;2023-05-10T00:27:42;3.95;;;2.70;;
77359;SDS011;66426;51.454;7.266;2023-05-10T00:28:43;4.55;;;2.78;;
77359;SDS011;66426;51.454;7.266;2023-05-10T00:29:43;4.32;;;2.90;;
77359;SDS011;66426;51.454;7.266;2023-05-10T00:30:44;3.05;;;2.42;;
77359;SDS011;66426;51.454;7.266;2023-05-10T00:31:45;3.85;;;2.58;;
77359;SDS011;66426;51.454;7.266;2023-05-10T00:32:46;3.97;;;2.75;;
77359;SDS011;66426;51.454;7.266;2023-05-10T00:33:48;3.92;;;2.42;;
77359;SDS011;66426;51.454;7.266;2023-05-10T00:34:50;3.97;;;2.80;;
77359;SDS011;66426;51.454;7.266;2023-05-10T00:35:51;4.05;;;2.85;;
77359;SDS011;66426;51.454;7.266;2023-05-10T00:36:53;4.55;;;2.85;;
77359;SDS011;66426;51.454;7.266;2023-05-10T00:37:53;4.47;;;3.03;;
77359;SDS011;66426;51.454;7.266;2023-05-10T00:38:54;3.67;;;2.55;;
77359;SDS011;66426;51.454;7.266;2023-05-10T00:39:55;4.35;;;2.78;;
77359;SDS011;66426;51.454;7.266;2023-05-10T00:40:56;5.63;;;3.80;;
77359;SDS011;66426;51.454;7.266;2023-05-10T00:41:57;4.38;;;3.17;;
77359;SDS011;66426;51.454;7.266;2023-05-10T00:42:58;4.53;;;2.92;;
77359;SDS011;66426;51.454;7.266;2023-05-10T00:44:00;4.93;;;3.10;;
77359;SDS011;66426;51.454;7.266;2023-05-10T00:45:02;5.32;;;3.67;;
77359;SDS011;66426;51.454;7.266;2023-05-10T00:46:04;6.05;;;3.63;;
77359;SDS011;66426;51.454;7.266;2023-05-10T00:47:05;6.07;;;3.33;;
77359;SDS011;66426;51.454;7.266;2023-05-10T00:48:06;4.85;;;3.42;;
77359;SDS011;66426;51.454;7.266;2023-05-10T00:49:07;6.88;;;3.30;;
77359;SDS011;66426;51.454;7.266;2023-05-10T00:50:10;5.32;;;3.42;;
77359;SDS011;66426;51.454;7.266;2023-05-10T00:51:11;4.93;;;3.40;;
77359;SDS011;66426;51.454;7.266;2023-05-10T00:52:12;4.10;;;2.97;;
77359;SDS011;66426;51.454;7.266;2023-05-10T00:53:13;5.80;;;3.40;;
77359;SDS011;66426;51.454;7.266;2023-05-10T00:54:15;5.45;;;3.53;;
77359;SDS011;66426;51.454;7.266;2023-05-10T00:55:16;4.72;;;3.05;;
77359;SDS011;66426;51.454;7.266;2023-05-10T00:56:18;5.80;;;4.25;;
77359;SDS011;66426;51.454;7.266;2023-05-10T00:57:23;5.40;;;3.60;;
77359;SDS011;66426;51.454;7.266;2023-05-10T00:58:25;5.90;;;3.67;;
77359;SDS011;66426;51.454;7.266;2023-05-10T00:59:28;6.63;;;3.85;;
77359;SDS011;66426;51.454;7.266;2023-05-10T01:00:30;6.30;;;3.80;;
77359;SDS011;66426;51.454;7.266;2023-05-10T01:01:32;6.05;;;3.85;;
77359;SDS011;66426;51.454;7.266;2023-05-10T01:02:34;6.03;;;4.00;;
77359;SDS011;66426;51.454;7.266;2023-05-10T01:03:35;5.63;;;3.40;;
77359;SDS011;66426;51.454;7.266;2023-05-10T01:04:36;6.20;;;4.13;;
77359;SDS011;66426;51.454;7.266;2023-05-10T01:05:39;7.25;;;4.15;;
77359;SDS011;66426;51.454;7.266;2023-05-10T01:06:40;7.28;;;4.70;;
77359;SDS011;66426;51.454;7.266;2023-05-10T01:07:41;6.40;;;3.85;;
77359;SDS011;66426;51.454;7.266;2023-05-10T01:08:42;6.30;;;3.85;;
77359;SDS011;66426;51.454;7.266;2023-05-10T01:09:43;6.82;;;4.40;;
77359;SDS011;66426;51.454;7.266;2023-05-10T01:10:44;6.70;;;4.53;;
77359;SDS011;66426;51.454;7.266;2023-05-10T01:11:46;6.90;;;4.03;;
77359;SDS011;66426;51.454;7.266;2023-05-10T01:12:47;6.72;;;4.22;;
77359;SDS011;66426;51.454;7.266;2023-05-10T01:13:56;7.13;;;4.18;;
77359;SDS011;66426;51.454;7.266;2023-05-10T01:14:58;7.68;;;4.60;;
77359;SDS011;66426;51.454;7.266;2023-05-10T01:16:00;7.55;;;4.30;;
77359;SDS011;66426;51.454;7.266;2023-05-10T01:17:03;7.78;;;4.70;;
77359;SDS011;66426;51.454;7.266;2023-05-10T01:18:06;7.30;;;4.35;;
77359;SDS011;66426;51.454;7.266;2023-05-10T01:19:10;6.80;;;4.25;;
77359;SDS011;66426;51.454;7.266;2023-05-10T01:20:17;7.80;;;4.70;;
77359;SDS011;66426;51.454;7.266;2023-05-10T01:21:21;8.23;;;4.82;;
77359;SDS011;66426;51.454;7.266;2023-05-10T01:22:33;6.32;;;4.15;;
77359;SDS011;66426;51.454;7.266;2023-05-10T01:23:55;7.82;;;3.95;;
77359;SDS011;66426;51.454;7.266;2023-05-10T01:25:42;7.15;;;4.50;;
77359;SDS011;66426;51.454;7.266;2023-05-10T01:31:31;7.93;;;4.30;;
77359;SDS011;66426;51.454;7.266;2023-05-10T01:32:42;6.72;;;4.15;;
77359;SDS011;66426;51.454;7.266;2023-05-10T01:33:47;6.55;;;4.30;;
77359;SDS011;66426;51.454;7.266;2023-05-10T01:34:57;6.50;;;4.40;;
77359;SDS011;66426;51.454;7.266;2023-05-10T01:36:03;7.38;;;3.95;;
77359;SDS011;66426;51.454;7.266;2023-05-10T01:37:10;6.78;;;4.32;;
77359;SDS011;66426;51.454;7.266;2023-05-10T01:38:20;6.82;;;4.15;;
77359;SDS011;66426;51.454;7.266;2023-05-10T01:39:30;8.80;;;4.28;;
77359;SDS011;66426;51.454;7.266;2023-05-10T01:40:37;6.70;;;3.92;;
77359;SDS011;66426;51.454;7.266;2023-05-10T01:41:45;5.78;;;3.70;;
77359;SDS011;66426;51.454;7.266;2023-05-10T01:42:53;5.68;;;3.50;;
77359;SDS011;66426;51.454;7.266;2023-05-10T01:43:57;6.35;;;3.90;;
77359;SDS011;66426;51.454;7.266;2023-05-10T01:45:07;6.20;;;4.50;;
77359;SDS011;66426;51.454;7.266;2023-05-10T01:46:16;5.72;;;3.70;;
77359;SDS011;66426;51.454;7.266;2023-05-10T01:47:24;5.57;;;3.47;;
77359;SDS011;66426;51.454;7.266;2023-05-10T01:48:32;7.03;;;4.10;;
77359;SDS011;66426;51.454;7.266;2023-05-10T01:49:34;5.38;;;3.67;;
77359;SDS011;66426;51.454;7.266;2023-05-10T01:50:41;5.07;;;3.42;;
77359;SDS011;66426;51.454;7.266;2023-05-10T01:51:45;7.47;;;4.15;;
77359;SDS011;66426;51.454;7.266;2023-05-10T01:52:50;6.22;;;4.10;;
77359;SDS011;66426;51.454;7.266;2023-05-10T01:53:58;7.70;;;4.45;;
77359;SDS011;66426;51.454;7.266;2023-05-10T01:55:02;5.80;;;3.75;;
77359;SDS011;66426;51.454;7.266;2023-05-10T01:56:06;6.32;;;4.20;;
77359;SDS011;66426;51.454;7.266;2023-05-10T01:57:09;5.88;;;3.97;;
77359;SDS011;66426;51.454;7.266;2023-05-10T01:59:18;6.55;;;4.10;;
77359;SDS011;66426;51.454;7.266;2023-05-10T02:00:20;6.05;;;4.00;;
77359;SDS011;66426;51.454;7.266;2023-05-10T02:01:21;5.43;;;3.45;;
77359;SDS011;66426;51.454;7.266;2023-05-10T02:02:24;7.25;;;3.92;;
77359;SDS011;66426;51.454;7.266;2023-05-10T02:03:27;6.85;;;3.92;;
77359;SDS011;66426;51.454;7.266;2023-05-10T02:04:31;5.55;;;3.42;;
77359;SDS011;66426;51.454;7.266;2023-05-10T02:05:35;7.32;;;4.30;;
77359;SDS011;66426;51.454;7.266;2023-05-10T02:06:38;5.47;;;3.53;;
77359;SDS011;66426;51.454;7.266;2023-05-10T02:07:39;6.47;;;4.22;;
77359;SDS011;66426;51.454;7.266;2023-05-10T02:08:42;6.35;;;3.75;;
77359;SDS011;66426;51.454;7.266;2023-05-10T02:09:46;7.03;;;4.25;;
77359;SDS011;66426;51.454;7.266;2023-05-10T02:10:49;5.80;;;4.00;;
77359;SDS011;66426;51.454;7.266;2023-05-10T02:11:52;6.30;;;3.95;;
77359;SDS011;66426;51.454;7.266;2023-05-10T02:12:54;7.40;;;4.68;;
77359;SDS011;66426;51.454;7.266;2023-05-10T02:13:56;6.82;;;4.50;;
77359;SDS011;66426;51.454;7.266;2023-05-10T02:14:59;6.85;;;4.43;;
77359;SDS011;66426;51.454;7.266;2023-05-10T02:16:02;7.88;;;4.45;;
77359;SDS011;66426;51.454;7.266;2023-05-10T02:17:05;9.23;;;4.85;;
77359;SDS011;66426;51.454;7.266;2023-05-10T02:18:08;7.45;;;4.40;;
77359;SDS011;66426;51.454;7.266;2023-05-10T02:19:11;7.68;;;4.78;;
77359;SDS011;66426;51.454;7.266;2023-05-10T02:20:16;6.20;;;3.97;;
77359;SDS011;66426;51.454;7.266;2023-05-10T02:21:19;6.30;;;3.90;;
77359;SDS011;66426;51.454;7.266;2023-05-10T02:22:22;8.85;;;4.70;;
77359;SDS011;66426;51.454;7.266;2023-05-10T02:23:23;6.93;;;4.18;;
77359;SDS011;66426;51.454;7.266;2023-05-10T02:24:26;9.52;;;5.00;;
77359;SDS011;66426;51.454;7.266;2023-05-10T02:25:29;7.00;;;4.65;;
77359;SDS011;66426;51.454;7.266;2023-05-10T02:26:32;7.93;;;5.00;;
77359;SDS011;66426;51.454;7.266;2023-05-10T02:27:35;7.88;;;4.35;;
77359;SDS011;66426;51.454;7.266;2023-05-10T02:28:37;7.47;;;4.85;;
77359;SDS011;66426;51.454;7.266;2023-05-10T02:29:40;8.35;;;4.85;;
77359;SDS011;66426;51.454;7.266;2023-05-10T02:30:42;8.15;;;4.88;;
77359;SDS011;66426;51.454;7.266;2023-05-10T02:31:43;7.40;;;5.25;;
77359;SDS011;66426;51.454;7.266;2023-05-10T02:32:45;7.45;;;4.88;;
77359;SDS011;66426;51.454;7.266;2023-05-10T02:33:49;7.90;;;4.50;;
77359;SDS011;66426;51.454;7.266;2023-05-10T02:34:51;8.30;;;4.78;;
77359;SDS011;66426;51.454;7.266;2023-05-10T02:35:54;7.43;;;4.50;;
77359;SDS011;66426;51.454;7.266;2023-05-10T02:36:57;9.15;;;5.13;;
77359;SDS011;66426;51.454;7.266;2023-05-10T02:38:00;7.88;;;4.57;;
77359;SDS011;66426;51.454;7.266;2023-05-10T02:39:02;7.25;;;4.70;;
77359;SDS011;66426;51.454;7.266;2023-05-10T02:40:03;7.85;;;4.53;;
77359;SDS011;66426;51.454;7.266;2023-05-10T02:41:06;8.20;;;4.82;;
77359;SDS011;66426;51.454;7.266;2023-05-10T02:42:11;9.02;;;4.93;;
77359;SDS011;66426;51.454;7.266;2023-05-10T02:43:17;7.63;;;4.55;;
77359;SDS011;66426;51.454;7.266;2023-05-10T02:44:19;8.55;;;4.70;;
77359;SDS011;66426;51.454;7.266;2023-05-10T02:45:23;9.60;;;5.38;;
77359;SDS011;66426;51.454;7.266;2023-05-10T02:46:26;9.00;;;5.00;;
77359;SDS011;66426;51.454;7.266;2023-05-10T02:47:27;8.57;;;4.97;;
77359;SDS011;66426;51.454;7.266;2023-05-10T02:48:29;8.52;;;5.20;;
77359;SDS011;66426;51.454;7.266;2023-05-10T02:49:30;11.18;;;5.47;;
77359;SDS011;66426;51.454;7.266;2023-05-10T02:50:32;8.85;;;5.10;;
77359;SDS011;66426;51.454;7.266;2023-05-10T02:51:35;10.27;;;5.88;;
77359;SDS011;66426;51.454;7.266;2023-05-10T02:52:42;8.90;;;5.32;;
77359;SDS011;66426;51.454;7.266;2023-05-10T02:53:46;8.63;;;4.50;;
77359;SDS011;66426;51.454;7.266;2023-05-10T02:54:50;7.65;;;4.63;;
77359;SDS011;66426;51.454;7.266;2023-05-10T02:55:57;7.85;;;4.47;;
77359;SDS011;66426;51.454;7.266;2023-05-10T02:57:01;8.40;;;4.68;;
77359;SDS011;66426;51.454;7.266;2023-05-10T02:59:06;7.75;;;4.20;;
77359;SDS011;66426;51.454;7.266;2023-05-10T03:00:08;8.23;;;5.03;;
77359;SDS011;66426;51.454;7.266;2023-05-10T03:01:09;9.73;;;5.22;;
77359;SDS011;66426;51.454;7.266;2023-05-10T03:02:10;9.02;;;5.03;;
77359;SDS011;66426;51.454;7.266;2023-05-10T03:03:12;9.95;;;5.38;;
77359;SDS011;66426;51.454;7.266;2023-05-10T03:04:13;11.55;;;5.13;;
77359;SDS011;66426;51.454;7.266;2023-05-10T03:05:14;9.50;;;5.05;;
77359;SDS011;66426;51.454;7.266;2023-05-10T03:06:15;8.82;;;5.40;;
77359;SDS011;66426;51.454;7.266;2023-05-10T03:07:18;8.02;;;5.00;;
77359;SDS011;66426;51.454;7.266;2023-05-10T03:08:21;8.23;;;4.93;;
77359;SDS011;66426;51.454;7.266;2023-05-10T03:09:23;11.80;;;5.47;;
77359;SDS011;66426;51.454;7.266;2023-05-10T03:10:26;9.75;;;5.68;;
77359;SDS011;66426;51.454;7.266;2023-05-10T03:11:32;9.45;;;5.28;;
77359;SDS011;66426;51.454;7.266;2023-05-10T03:12:57;9.13;;;5.32;;
77359;SDS011;66426;51.454;7.266;2023-05-10T03:14:10;8.98;;;4.85;;
77359;SDS011;66426;51.454;7.266;2023-05-10T03:16:27;10.10;;;4.65;;
77359;SDS011;66426;51.454;7.266;2023-05-10T03:17:35;10.45;;;5.13;;
77359;SDS011;66426;51.454;7.266;2023-05-10T03:18:42;11.57;;;5.22;;
77359;SDS011;66426;51.454;7.266;2023-05-10T03:19:46;8.80;;;5.20;;
77359;SDS011;66426;51.454;7.266;2023-05-10T03:20:57;9.73;;;5.18;;
77359;SDS011;66426;51.454;7.266;2023-05-10T03:22:03;11.65;;;5.68;;
77359;SDS011;66426;51.454;7.266;2023-05-10T03:23:13;8.80;;;5.07;;
77359;SDS011;66426;51.454;7.266;2023-05-10T03:24:22;9.32;;;5.18;;
77359;SDS011;66426;51.454;7.266;2023-05-10T03:25:27;9.45;;;4.85;;
77359;SDS011;66426;51.454;7.266;2023-05-10T03:26:31;8.70;;;4.88;;
77359;SDS011;66426;51.454;7.266;2023-05-10T03:27:33;9.82;;;5.20;;
77359;SDS011;66426;51.454;7.266;2023-05-10T03:28:35;9.95;;;5.32;;
77359;SDS011;66426;51.454;7.266;2023-05-10T03:29:37;9.25;;;5.18;;
77359;SDS011;66426;51.454;7.266;2023-05-10T03:30:40;8.50;;;4.95;;
77359;SDS011;66426;51.454;7.266;2023-05-10T03:31:43;8.45;;;5.10;;
77359;SDS011;66426;51.454;7.266;2023-05-10T03:32:44;10.43;;;5.18;;
77359;SDS011;66426;51.454;7.266;2023-05-10T03:33:46;10.38;;;5.70;;
77359;SDS011;66426;51.454;7.266;2023-05-10T03:34:47;10.80;;;5.18;;
77359;SDS011;66426;51.454;7.266;2023-05-10T03:35:48;8.77;;;5.45;;
77359;SDS011;66426;51.454;7.266;2023-05-10T03:36:49;8.95;;;5.30;;
77359;SDS011;66426;51.454;7.266;2023-05-10T03:37:50;10.10;;;4.95;;
77359;SDS011;66426;51.454;7.266;2023-05-10T03:38:52;9.10;;;4.82;;
77359;SDS011;66426;51.454;7.266;2023-05-10T03:39:53;8.65;;;4.90;;
77359;SDS011;66426;51.454;7.266;2023-05-10T03:40:54;9.75;;;5.05;;
77359;SDS011;66426;51.454;7.266;2023-05-10T03:41:56;9.45;;;5.03;;
77359;SDS011;66426;51.454;7.266;2023-05-10T03:42:57;9.98;;;4.90;;
77359;SDS011;66426;51.454;7.266;2023-05-10T03:43:58;10.23;;;5.05;;
77359;SDS011;66426;51.454;7.266;2023-05-10T03:44:59;8.80;;;4.97;;
77359;SDS011;66426;51.454;7.266;2023-05-10T03:46:01;8.98;;;5.28;;
77359;SDS011;66426;51.454;7.266;2023-05-10T03:47:02;8.05;;;4.63;;
77359;SDS011;66426;51.454;7.266;2023-05-10T03:48:03;10.13;;;5.45;;
77359;SDS011;66426;51.454;7.266;2023-05-10T03:49:04;10.07;;;5.05;;
77359;SDS011;66426;51.454;7.266;2023-05-10T03:50:05;10.10;;;5.25;;
77359;SDS011;66426;51.454;7.266;2023-05-10T03:51:07;10.48;;;5.57;;
77359;SDS011;66426;51.454;7.266;2023-05-10T03:52:08;9.18;;;4.78;;
77359;SDS011;66426;51.454;7.266;2023-05-10T03:53:09;10.85;;;5.50;;
77359;SDS011;66426;51.454;7.266;2023-05-10T03:54:11;10.38;;;5.38;;
77359;SDS011;66426;51.454;7.266;2023-05-10T03:55:12;10.02;;;5.10;;
77359;SDS011;66426;51.454;7.266;2023-05-10T03:56:13;9.48;;;5.32;;
77359;SDS011;66426;51.454;7.266;2023-05-10T03:57:13;11.32;;;5.93;;
77359;SDS011;66426;51.454;7.266;2023-05-10T03:58:15;11.85;;;6.13;;
77359;SDS011;66426;51.454;7.266;2023-05-10T03:59:15;11.13;;;6.32;;
77359;SDS011;66426;51.454;7.266;2023-05-10T04:00:16;14.07;;;6.28;;
77359;SDS011;66426;51.454;7.266;2023-05-10T04:01:17;13.52;;;7.15;;
77359;SDS011;66426;51.454;7.266;2023-05-10T04:02:18;12.68;;;6.20;;
77359;SDS011;66426;51.454;7.266;2023-05-10T04:03:19;12.43;;;6.82;;
77359;SDS011;66426;51.454;7.266;2023-05-10T04:04:20;12.40;;;6.53;;
77359;SDS011;66426;51.454;7.266;2023-05-10T04:05:22;12.63;;;6.95;;
77359;SDS011;66426;51.454;7.266;2023-05-10T04:06:23;17.20;;;8.25;;
77359;SDS011;66426;51.454;7.266;2023-05-10T04:07:24;12.23;;;6.63;;
77359;SDS011;66426;51.454;7.266;2023-05-10T04:08:25;13.90;;;7.38;;
77359;SDS011;66426;51.454;7.266;2023-05-10T04:09:27;15.10;;;7.28;;
77359;SDS011;66426;51.454;7.266;2023-05-10T04:10:28;13.82;;;7.47;;
77359;SDS011;66426;51.454;7.266;2023-05-10T04:11:29;14.82;;;7.82;;
77359;SDS011;66426;51.454;7.266;2023-05-10T04:12:30;17.08;;;8.63;;
77359;SDS011;66426;51.454;7.266;2023-05-10T04:13:31;14.73;;;7.97;;
77359;SDS011;66426;51.454;7.266;2023-05-10T04:14:32;14.90;;;7.85;;
77359;SDS011;66426;51.454;7.266;2023-05-10T04:15:33;16.48;;;9.40;;
77359;SDS011;66426;51.454;7.266;2023-05-10T04:16:35;16.38;;;8.70;;
77359;SDS011;66426;51.454;7.266;2023-05-10T04:17:36;15.63;;;8.10;;
77359;SDS011;66426;51.454;7.266;2023-05-10T04:18:38;15.82;;;8.35;;
77359;SDS011;66426;51.454;7.266;2023-05-10T04:19:40;14.30;;;8.02;;
77359;SDS011;66426;51.454;7.266;2023-05-10T04:20:40;15.32;;;7.53;;
77359;SDS011;66426;51.454;7.266;2023-05-10T04:21:41;18.40;;;7.35;;
77359;SDS011;66426;51.454;7.266;2023-05-10T04:22:42;16.00;;;8.77;;
77359;SDS011;66426;51.454;7.266;2023-05-10T04:23:43;16.70;;;8.07;;
77359;SDS011;66426;51.454;7.266;2023-05-10T04:24:46;17.52;;;8.05;;
77359;SDS011;66426;51.454;7.266;2023-05-10T04:25:47;16.52;;;8.10;;
77359;SDS011;66426;51.454;7.266;2023-05-10T04:26:47;16.92;;;8.88;;
77359;SDS011;66426;51.454;7.266;2023-05-10T04:27:48;15.77;;;8.10;;
77359;SDS011;66426;51.454;7.266;2023-05-10T04:28:49;15.27;;;8.23;;
77359;SDS011;66426;51.454;7.266;2023-05-10T04:29:50;14.23;;;7.88;;
77359;SDS011;66426;51.454;7.266;2023-05-10T04:30:51;15.05;;;8.50;;
77359;SDS011;66426;51.454;7.266;2023-05-10T04:31:52;13.35;;;7.78;;
77359;SDS011;66426;51.454;7.266;2023-05-10T04:32:53;16.38;;;7.85;;
77359;SDS011;66426;51.454;7.266;2023-05-10T04:33:54;17.77;;;7.72;;
77359;SDS011;66426;51.454;7.266;2023-05-10T04:34:55;14.63;;;7.93;;
77359;SDS011;66426;51.454;7.266;2023-05-10T04:35:56;17.83;;;7.93;;
77359;SDS011;66426;51.454;7.266;2023-05-10T04:36:57;14.40;;;7.45;;
77359;SDS011;66426;51.454;7.266;2023-05-10T04:37:58;14.77;;;8.15;;
77359;SDS011;66426;51.454;7.266;2023-05-10T04:38:59;18.33;;;9.32;;
77359;SDS011;66426;51.454;7.266;2023-05-10T04:40:01;15.40;;;8.32;;
77359;SDS011;66426;51.454;7.266;2023-05-10T04:41:03;17.02;;;9.00;;
77359;SDS011;66426;51.454;7.266;2023-05-10T04:42:05;18.30;;;9.10;;
77359;SDS011;66426;51.454;7.266;2023-05-10T04:43:06;16.20;;;8.48;;
77359;SDS011;66426;51.454;7.266;2023-05-10T04:44:07;19.17;;;8.65;;
77359;SDS011;66426;51.454;7.266;2023-05-10T04:45:08;15.00;;;8.43;;
77359;SDS011;66426;51.454;7.266;2023-05-10T04:46:10;17.92;;;9.10;;
77359;SDS011;66426;51.454;7.266;2023-05-10T04:47:11;15.98;;;8.73;;
77359;SDS011;66426;51.454;7.266;2023-05-10T04:48:13;17.13;;;8.68;;
77359;SDS011;66426;51.454;7.266;2023-05-10T04:49:14;15.90;;;8.82;;
77359;SDS011;66426;51.454;7.266;2023-05-10T04:50:15;17.80;;;9.00;;
77359;SDS011;66426;51.454;7.266;2023-05-10T04:51:16;16.73;;;8.45;;
77359;SDS011;66426;51.454;7.266;2023-05-10T04:52:17;15.55;;;8.55;;
77359;SDS011;66426;51.454;7.266;2023-05-10T04:53:18;17.10;;;8.65;;
77359;SDS011;66426;51.454;7.266;2023-05-10T04:54:19;16.85;;;8.25;;
77359;SDS011;66426;51.454;7.266;2023-05-10T04:55:21;17.45;;;8.80;;
77359;SDS011;66426;51.454;7.266;2023-05-10T04:56:22;16.92;;;9.38;;
77359;SDS011;66426;51.454;7.266;2023-05-10T04:57:23;17.73;;;9.30;;
77359;SDS011;66426;51.454;7.266;2023-05-10T04:58:24;19.75;;;9.38;;
77359;SDS011;66426;51.454;7.266;2023-05-10T04:59:25;17.52;;;8.65;;
77359;SDS011;66426;51.454;7.266;2023-05-10T05:00:26;18.58;;;8.73;;
77359;SDS011;66426;51.454;7.266;2023-05-10T05:01:27;18.58;;;9.23;;
77359;SDS011;66426;51.454;7.266;2023-05-10T05:02:28;18.30;;;9.35;;
77359;SDS011;66426;51.454;7.266;2023-05-10T05:03:28;20.85;;;9.52;;
77359;SDS011;66426;51.454;7.266;2023-05-10T05:04:29;18.20;;;9.68;;
77359;SDS011;66426;51.454;7.266;2023-05-10T05:05:31;18.25;;;9.82;;
77359;SDS011;66426;51.454;7.266;2023-05-10T05:06:32;17.35;;;9.10;;
77359;SDS011;66426;51.454;7.266;2023-05-10T05:07:33;18.50;;;9.88;;
77359;SDS011;66426;51.454;7.266;2023-05-10T05:08:34;21.58;;;10.05;;
77359;SDS011;66426;51.454;7.266;2023-05-10T05:09:35;21.75;;;10.88;;
77359;SDS011;66426;51.454;7.266;2023-05-10T05:10:37;18.88;;;10.40;;
77359;SDS011;66426;51.454;7.266;2023-05-10T05:11:38;21.65;;;10.50;;
77359;SDS011;66426;51.454;7.266;2023-05-10T05:12:40;20.75;;;10.52;;
77359;SDS011;66426;51.454;7.266;2023-05-10T05:13:41;19.73;;;10.25;;
77359;SDS011;66426;51.454;7.266;2023-05-10T05:14:42;20.63;;;10.77;;
77359;SDS011;66426;51.454;7.266;2023-05-10T05:15:43;21.30;;;11.23;;
77359;SDS011;66426;51.454;7.266;2023-05-10T05:16:44;21.45;;;10.90;;
77359;SDS011;66426;51.454;7.266;2023-05-10T05:17:45;23.27;;;10.73;;
77359;SDS011;66426;51.454;7.266;2023-05-10T05:18:46;24.40;;;11.60;;
77359;SDS011;66426;51.454;7.266;2023-05-10T05:19:47;21.95;;;11.40;;
77359;SDS011;66426;51.454;7.266;2023-05-10T05:20:48;20.50;;;9.90;;
77359;SDS011;66426;51.454;7.266;2023-05-10T05:21:49;28.20;;;12.40;;
77359;SDS011;66426;51.454;7.266;2023-05-10T05:22:50;23.02;;;10.35;;
77359;SDS011;66426;51.454;7.266;2023-05-10T05:23:50;22.30;;;11.40;;
77359;SDS011;66426;51.454;7.266;2023-05-10T05:24:51;25.05;;;11.77;;
77359;SDS011;66426;51.454;7.266;2023-05-10T05:25:54;22.00;;;11.82;;
77359;SDS011;66426;51.454;7.266;2023-05-10T05:26:54;24.42;;;11.63;;
77359;SDS011;66426;51.454;7.266;2023-05-10T05:27:55;22.77;;;11.10;;
77359;SDS011;66426;51.454;7.266;2023-05-10T05:28:56;23.60;;;11.75;;
77359;SDS011;66426;51.454;7.266;2023-05-10T05:29:57;24.60;;;12.57;;
77359;SDS011;66426;51.454;7.266;2023-05-10T05:30:58;26.27;;;12.10;;
77359;SDS011;66426;51.454;7.266;2023-05-10T05:31:59;24.83;;;11.60;;
77359;SDS011;66426;51.454;7.266;2023-05-10T05:33:00;26.67;;;12.20;;
77359;SDS011;66426;51.454;7.266;2023-05-10T05:34:01;23.48;;;12.02;;
77359;SDS011;66426;51.454;7.266;2023-05-10T05:35:02;24.95;;;12.80;;
77359;SDS011;66426;51.454;7.266;2023-05-10T05:36:03;23.05;;;11.93;;
77359;SDS011;66426;51.454;7.266;2023-05-10T05:37:05;25.38;;;11.80;;
77359;SDS011;66426;51.454;7.266;2023-05-10T05:38:06;27.80;;;12.65;;
77359;SDS011;66426;51.454;7.266;2023-05-10T05:39:07;25.75;;;12.63;;
77359;SDS011;66426;51.454;7.266;2023-05-10T05:40:11;28.35;;;13.00;;
77359;SDS011;66426;51.454;7.266;2023-05-10T05:41:14;26.40;;;13.10;;
77359;SDS011;66426;51.454;7.266;2023-05-10T05:42:15;25.85;;;12.85;;
77359;SDS011;66426;51.454;7.266;2023-05-10T05:43:18;28.52;;;12.43;;
77359;SDS011;66426;51.454;7.266;2023-05-10T05:44:18;26.67;;;13.30;;
77359;SDS011;66426;51.454;7.266;2023-05-10T05:45:19;32.35;;;13.80;;
77359;SDS011;66426;51.454;7.266;2023-05-10T05:46:21;28.92;;;13.65;;
77359;SDS011;66426;51.454;7.266;2023-05-10T05:47:22;26.75;;;13.63;;
77359;SDS011;66426;51.454;7.266;2023-05-10T05:48:23;26.60;;;12.27;;
77359;SDS011;66426;51.454;7.266;2023-05-10T05:49:24;25.92;;;12.20;;
77359;SDS011;66426;51.454;7.266;2023-05-10T05:50:25;27.02;;;12.73;;
77359;SDS011;66426;51.454;7.266;2023-05-10T05:51:26;25.65;;;12.00;;
77359;SDS011;66426;51.454;7.266;2023-05-10T05:52:27;25.83;;;12.95;;
77359;SDS011;66426;51.454;7.266;2023-05-10T05:53:28;27.13;;;13.23;;
77359;SDS011;66426;51.454;7.266;2023-05-10T05:54:29;28.85;;;13.73;;
77359;SDS011;66426;51.454;7.266;2023-05-10T05:55:30;32.58;;;14.88;;
77359;SDS011;66426;51.454;7.266;2023-05-10T05:56:33;28.25;;;13.73;;
77359;SDS011;66426;51.454;7.266;2023-05-10T05:57:34;28.45;;;13.25;;
77359;SDS011;66426;51.454;7.266;2023-05-10T05:58:35;28.63;;;12.68;;
77359;SDS011;66426;51.454;7.266;2023-05-10T05:59:36;27.13;;;13.25;;
77359;SDS011;66426;51.454;7.266;2023-05-10T06:00:36;29.27;;;13.55;;
77359;SDS011;66426;51.454;7.266;2023-05-10T06:01:37;31.98;;;13.13;;
77359;SDS011;66426;51.454;7.266;2023-05-10T06:02:38;27.45;;;13.65;;
77359;SDS011;66426;51.454;7.266;2023-05-10T06:03:39;31.38;;;13.73;;
77359;SDS011;66426;51.454;7.266;2023-05-10T06:04:40;31.25;;;14.80;;
77359;SDS011;66426;51.454;7.266;2023-05-10T06:05:41;28.30;;;14.63;;
77359;SDS011;66426;51.454;7.266;2023-05-10T06:06:42;29.27;;;13.82;;
77359;SDS011;66426;51.454;7.266;2023-05-10T06:07:43;28.58;;;13.50;;
77359;SDS011;66426;51.454;7.266;2023-05-10T06:08:44;29.02;;;14.05;;
77359;SDS011;66426;51.454;7.266;2023-05-10T06:09:45;30.77;;;14.43;;
77359;SDS011;66426;51.454;7.266;2023-05-10T06:10:46;28.77;;;14.57;;
77359;SDS011;66426;51.454;7.266;2023-05-10T06:11:48;29.33;;;13.88;;
77359;SDS011;66426;51.454;7.266;2023-05-10T06:12:50;28.95;;;13.75;;
77359;SDS011;66426;51.454;7.266;2023-05-10T06:13:51;27.35;;;13.82;;
77359;SDS011;66426;51.454;7.266;2023-05-10T06:14:52;30.95;;;14.40;;
77359;SDS011;66426;51.454;7.266;2023-05-10T06:15:52;31.08;;;14.23;;
77359;SDS011;66426;51.454;7.266;2023-05-10T06:16:53;32.33;;;15.77;;
77359;SDS011;66426;51.454;7.266;2023-05-10T06:17:54;33.03;;;14.07;;
77359;SDS011;66426;51.454;7.266;2023-05-10T06:18:55;27.80;;;12.93;;
77359;SDS011;66426;51.454;7.266;2023-05-10T06:19:56;29.48;;;14.20;;